sensor_id;sensor_type;location;lat;lon;timestamp;P1;durP1;ratioP1;P2;durP2;ratioP2
8823;SDS011;4448;50.904;4.694;2022-11-11T00:00:10;6.37;;;4.20;;
8823;SDS011;4448;50.904;4.694;2022-11-11T00:02:38;2.87;;;2.47;;
8823;SDS011;4448;50.904;4.694;2022-11-11T00:05:04;0.30;;;0.30;;
8823;SDS011;4448;50.904;4.694;2022-11-11T00:07:29;4.27;;;3.53;;
8823;SDS011;4448;50.904;4.694;2022-11-11T00:09:55;4.23;;;3.87;;
8823;SDS011;4448;50.904;4.694;2022-11-11T00:12:20;2.23;;;2.03;;
8823;SDS011;4448;50.904;4.694;2022-11-11T00:14:46;3.83;;;2.53;;
8823;SDS011;4448;50.904;4.694;2022-11-11T00:17:12;4.13;;;2.40;;
8823;SDS011;4448;50.904;4.694;2022-11-11T00:19:56;5.03;;;3.10;;
8823;SDS011;4448;50.904;4.694;2022-11-11T00:22:41;6.90;;;4.10;;
8823;SDS011;4448;50.904;4.694;2022-11-11T00:25:25;2.70;;;2.50;;
8823;SDS011;4448;50.904;4.694;2022-11-11T00:27:50;2.30;;;1.60;;
8823;SDS011;4448;50.904;4.694;2022-11-11T00:30:16;1.10;;;0.90;;
8823;SDS011;4448;50.904;4.694;2022-11-11T00:32:42;8.10;;;4.27;;
8823;SDS011;4448;50.904;4.694;2022-11-11T00:35:08;4.50;;;4.10;;
8823;SDS011;4448;50.904;4.694;2022-11-11T00:37:53;4.83;;;3.53;;
8823;SDS011;4448;50.904;4.694;2022-11-11T00:40:30;3.40;;;2.53;;
8823;SDS011;4448;50.904;4.694;2022-11-11T00:42:55;2.37;;;2.17;;
8823;SDS011;4448;50.904;4.694;2022-11-11T00:45:21;4.47;;;3.17;;
8823;SDS011;4448;50.904;4.694;2022-11-11T00:47:47;3.37;;;2.27;;
8823;SDS011;4448;50.904;4.694;2022-11-11T00:50:31;5.97;;;3.60;;
8823;SDS011;4448;50.904;4.694;2022-11-11T00:53:16;5.87;;;4.60;;
8823;SDS011;4448;50.904;4.694;2022-11-11T00:55:46;4.10;;;2.93;;
8823;SDS011;4448;50.904;4.694;2022-11-11T00:58:11;1.70;;;1.63;;
8823;SDS011;4448;50.904;4.694;2022-11-11T01:00:37;0.97;;;0.80;;
8823;SDS011;4448;50.904;4.694;2022-11-11T01:03:03;2.00;;;1.67;;
8823;SDS011;4448;50.904;4.694;2022-11-11T01:05:29;6.40;;;3.33;;
8823;SDS011;4448;50.904;4.694;2022-11-11T01:07:55;5.30;;;3.43;;
8823;SDS011;4448;50.904;4.694;2022-11-11T01:10:21;3.77;;;3.33;;
8823;SDS011;4448;50.904;4.694;2022-11-11T01:13:03;6.77;;;4.33;;
8823;SDS011;4448;50.904;4.694;2022-11-11T01:15:38;6.53;;;2.63;;
8823;SDS011;4448;50.904;4.694;2022-11-11T01:18:04;6.17;;;2.70;;
8823;SDS011;4448;50.904;4.694;2022-11-11T01:20:30;6.73;;;4.13;;
8823;SDS011;4448;50.904;4.694;2022-11-11T01:22:56;6.43;;;4.80;;
8823;SDS011;4448;50.904;4.694;2022-11-11T01:25:21;2.47;;;1.97;;
8823;SDS011;4448;50.904;4.694;2022-11-11T01:27:47;6.53;;;4.00;;
8823;SDS011;4448;50.904;4.694;2022-11-11T01:30:13;3.73;;;2.63;;
8823;SDS011;4448;50.904;4.694;2022-11-11T01:32:39;6.67;;;3.37;;
8823;SDS011;4448;50.904;4.694;2022-11-11T01:35:05;2.73;;;2.30;;
8823;SDS011;4448;50.904;4.694;2022-11-11T01:37:31;5.70;;;3.40;;
8823;SDS011;4448;50.904;4.694;2022-11-11T01:39:58;3.20;;;2.90;;
8823;SDS011;4448;50.904;4.694;2022-11-11T01:42:23;5.03;;;3.50;;
8823;SDS011;4448;50.904;4.694;2022-11-11T01:44:49;9.57;;;2.60;;
8823;SDS011;4448;50.904;4.694;2022-11-11T01:47:15;1.80;;;1.47;;
8823;SDS011;4448;50.904;4.694;2022-11-11T01:49:56;4.87;;;3.13;;
8823;SDS011;4448;50.904;4.694;2022-11-11T01:52:29;2.03;;;1.93;;
8823;SDS011;4448;50.904;4.694;2022-11-11T01:57:37;1.77;;;1.67;;
8823;SDS011;4448;50.904;4.694;2022-11-11T02:00:16;4.97;;;3.60;;
8823;SDS011;4448;50.904;4.694;2022-11-11T02:02:45;6.80;;;4.83;;
8823;SDS011;4448;50.904;4.694;2022-11-11T02:05:20;5.43;;;3.87;;
8823;SDS011;4448;50.904;4.694;2022-11-11T02:08:25;3.83;;;3.13;;
8823;SDS011;4448;50.904;4.694;2022-11-11T02:11:01;3.67;;;3.40;;
8823;SDS011;4448;50.904;4.694;2022-11-11T02:13:27;9.43;;;5.37;;
8823;SDS011;4448;50.904;4.694;2022-11-11T02:16:13;4.83;;;4.20;;
8823;SDS011;4448;50.904;4.694;2022-11-11T02:18:41;5.17;;;4.10;;
8823;SDS011;4448;50.904;4.694;2022-11-11T02:21:09;1.73;;;1.33;;
8823;SDS011;4448;50.904;4.694;2022-11-11T02:26:33;6.93;;;4.63;;
8823;SDS011;4448;50.904;4.694;2022-11-11T02:29:04;10.10;;;4.23;;
8823;SDS011;4448;50.904;4.694;2022-11-11T02:31:37;5.07;;;3.43;;
8823;SDS011;4448;50.904;4.694;2022-11-11T02:34:03;5.63;;;4.20;;
8823;SDS011;4448;50.904;4.694;2022-11-11T02:36:29;5.30;;;3.60;;
8823;SDS011;4448;50.904;4.694;2022-11-11T02:38:55;6.57;;;5.10;;
8823;SDS011;4448;50.904;4.694;2022-11-11T02:41:21;10.83;;;1.23;;
8823;SDS011;4448;50.904;4.694;2022-11-11T02:44:06;4.50;;;3.27;;
8823;SDS011;4448;50.904;4.694;2022-11-11T02:46:33;8.77;;;3.07;;
8823;SDS011;4448;50.904;4.694;2022-11-11T02:48:58;6.27;;;3.13;;
8823;SDS011;4448;50.904;4.694;2022-11-11T02:51:25;4.63;;;3.57;;
8823;SDS011;4448;50.904;4.694;2022-11-11T02:53:52;2.43;;;2.23;;
8823;SDS011;4448;50.904;4.694;2022-11-11T02:56:22;5.07;;;3.87;;
8823;SDS011;4448;50.904;4.694;2022-11-11T02:59:08;4.93;;;3.23;;
8823;SDS011;4448;50.904;4.694;2022-11-11T03:01:34;5.70;;;3.17;;
8823;SDS011;4448;50.904;4.694;2022-11-11T03:03:59;7.23;;;4.67;;
8823;SDS011;4448;50.904;4.694;2022-11-11T03:06:25;2.83;;;2.37;;
8823;SDS011;4448;50.904;4.694;2022-11-11T03:08:51;8.63;;;4.40;;
8823;SDS011;4448;50.904;4.694;2022-11-11T03:11:16;5.43;;;3.13;;
8823;SDS011;4448;50.904;4.694;2022-11-11T03:13:58;7.90;;;3.67;;
8823;SDS011;4448;50.904;4.694;2022-11-11T03:16:25;4.07;;;1.27;;
8823;SDS011;4448;50.904;4.694;2022-11-11T03:19:12;7.03;;;4.40;;
8823;SDS011;4448;50.904;4.694;2022-11-11T03:21:38;3.10;;;2.07;;
8823;SDS011;4448;50.904;4.694;2022-11-11T03:24:04;0.67;;;0.67;;
8823;SDS011;4448;50.904;4.694;2022-11-11T03:26:30;9.00;;;4.33;;
8823;SDS011;4448;50.904;4.694;2022-11-11T03:28:56;7.30;;;4.00;;
8823;SDS011;4448;50.904;4.694;2022-11-11T03:31:22;5.13;;;3.80;;
8823;SDS011;4448;50.904;4.694;2022-11-11T03:33:47;3.50;;;2.97;;
8823;SDS011;4448;50.904;4.694;2022-11-11T03:36:13;2.83;;;2.60;;
8823;SDS011;4448;50.904;4.694;2022-11-11T03:38:39;12.70;;;4.93;;
8823;SDS011;4448;50.904;4.694;2022-11-11T03:41:04;6.70;;;3.70;;
8823;SDS011;4448;50.904;4.694;2022-11-11T03:43:31;3.23;;;2.40;;
8823;SDS011;4448;50.904;4.694;2022-11-11T03:45:59;0.37;;;0.37;;
8823;SDS011;4448;50.904;4.694;2022-11-11T03:48:27;3.23;;;2.63;;
8823;SDS011;4448;50.904;4.694;2022-11-11T03:50:54;4.00;;;2.20;;
8823;SDS011;4448;50.904;4.694;2022-11-11T03:53:20;2.47;;;2.27;;
8823;SDS011;4448;50.904;4.694;2022-11-11T03:55:47;4.63;;;3.50;;
8823;SDS011;4448;50.904;4.694;2022-11-11T03:58:14;3.93;;;3.20;;
8823;SDS011;4448;50.904;4.694;2022-11-11T04:00:40;8.50;;;3.73;;
8823;SDS011;4448;50.904;4.694;2022-11-11T04:03:08;2.57;;;1.97;;
8823;SDS011;4448;50.904;4.694;2022-11-11T04:05:55;6.47;;;2.97;;
8823;SDS011;4448;50.904;4.694;2022-11-11T04:08:39;7.70;;;4.40;;
8823;SDS011;4448;50.904;4.694;2022-11-11T04:11:24;3.90;;;2.70;;
8823;SDS011;4448;50.904;4.694;2022-11-11T04:13:52;7.73;;;4.83;;
8823;SDS011;4448;50.904;4.694;2022-11-11T04:16:43;9.50;;;3.87;;
8823;SDS011;4448;50.904;4.694;2022-11-11T04:19:08;7.53;;;3.83;;
8823;SDS011;4448;50.904;4.694;2022-11-11T04:21:52;3.20;;;2.60;;
8823;SDS011;4448;50.904;4.694;2022-11-11T04:24:18;1.07;;;1.07;;
8823;SDS011;4448;50.904;4.694;2022-11-11T04:27:08;2.50;;;2.30;;
8823;SDS011;4448;50.904;4.694;2022-11-11T04:29:35;2.00;;;1.80;;
8823;SDS011;4448;50.904;4.694;2022-11-11T04:34:56;1.07;;;0.93;;
8823;SDS011;4448;50.904;4.694;2022-11-11T04:37:23;2.00;;;1.90;;
8823;SDS011;4448;50.904;4.694;2022-11-11T04:39:50;7.10;;;4.47;;
8823;SDS011;4448;50.904;4.694;2022-11-11T04:42:35;6.27;;;3.30;;
8823;SDS011;4448;50.904;4.694;2022-11-11T04:45:02;2.07;;;1.87;;
8823;SDS011;4448;50.904;4.694;2022-11-11T04:50:18;4.80;;;3.70;;
8823;SDS011;4448;50.904;4.694;2022-11-11T04:52:44;2.40;;;2.07;;
8823;SDS011;4448;50.904;4.694;2022-11-11T04:55:10;8.63;;;3.50;;
8823;SDS011;4448;50.904;4.694;2022-11-11T04:57:55;7.07;;;3.93;;
8823;SDS011;4448;50.904;4.694;2022-11-11T05:00:20;10.57;;;5.40;;
8823;SDS011;4448;50.904;4.694;2022-11-11T05:02:46;11.03;;;5.57;;
8823;SDS011;4448;50.904;4.694;2022-11-11T05:05:30;3.13;;;2.73;;
8823;SDS011;4448;50.904;4.694;2022-11-11T05:08:18;8.83;;;3.67;;
8823;SDS011;4448;50.904;4.694;2022-11-11T05:11:03;7.47;;;4.13;;
8823;SDS011;4448;50.904;4.694;2022-11-11T05:13:29;7.40;;;5.13;;
8823;SDS011;4448;50.904;4.694;2022-11-11T05:16:15;8.33;;;5.10;;
8823;SDS011;4448;50.904;4.694;2022-11-11T05:19:03;9.33;;;4.83;;
8823;SDS011;4448;50.904;4.694;2022-11-11T05:21:48;8.93;;;5.60;;
8823;SDS011;4448;50.904;4.694;2022-11-11T05:24:17;10.73;;;5.57;;
8823;SDS011;4448;50.904;4.694;2022-11-11T05:27:01;7.40;;;3.27;;
8823;SDS011;4448;50.904;4.694;2022-11-11T05:29:27;14.57;;;6.20;;
8823;SDS011;4448;50.904;4.694;2022-11-11T05:31:53;3.43;;;2.77;;
8823;SDS011;4448;50.904;4.694;2022-11-11T05:34:18;7.13;;;5.77;;
8823;SDS011;4448;50.904;4.694;2022-11-11T05:36:44;8.97;;;5.40;;
8823;SDS011;4448;50.904;4.694;2022-11-11T05:39:09;8.87;;;4.43;;
8823;SDS011;4448;50.904;4.694;2022-11-11T05:41:35;7.43;;;4.37;;
8823;SDS011;4448;50.904;4.694;2022-11-11T05:44:01;10.57;;;5.33;;
8823;SDS011;4448;50.904;4.694;2022-11-11T05:46:26;7.77;;;4.17;;
8823;SDS011;4448;50.904;4.694;2022-11-11T05:48:52;12.10;;;5.17;;
8823;SDS011;4448;50.904;4.694;2022-11-11T05:51:36;9.53;;;4.77;;
8823;SDS011;4448;50.904;4.694;2022-11-11T05:54:01;8.53;;;5.23;;
8823;SDS011;4448;50.904;4.694;2022-11-11T05:56:27;3.20;;;2.47;;
8823;SDS011;4448;50.904;4.694;2022-11-11T05:58:53;3.20;;;2.63;;
8823;SDS011;4448;50.904;4.694;2022-11-11T06:01:18;6.77;;;4.20;;
8823;SDS011;4448;50.904;4.694;2022-11-11T06:03:44;2.50;;;1.67;;
8823;SDS011;4448;50.904;4.694;2022-11-11T06:06:10;9.50;;;4.60;;
8823;SDS011;4448;50.904;4.694;2022-11-11T06:08:36;9.00;;;6.13;;
8823;SDS011;4448;50.904;4.694;2022-11-11T06:11:02;0.97;;;0.97;;
8823;SDS011;4448;50.904;4.694;2022-11-11T06:13:28;7.93;;;4.20;;
8823;SDS011;4448;50.904;4.694;2022-11-11T06:15:54;8.60;;;4.90;;
8823;SDS011;4448;50.904;4.694;2022-11-11T06:18:21;7.43;;;5.33;;
8823;SDS011;4448;50.904;4.694;2022-11-11T06:20:51;7.47;;;4.00;;
8823;SDS011;4448;50.904;4.694;2022-11-11T06:23:20;8.07;;;4.17;;
8823;SDS011;4448;50.904;4.694;2022-11-11T06:25:46;6.97;;;4.60;;
8823;SDS011;4448;50.904;4.694;2022-11-11T06:28:30;9.37;;;5.27;;
8823;SDS011;4448;50.904;4.694;2022-11-11T06:30:56;4.30;;;3.83;;
8823;SDS011;4448;50.904;4.694;2022-11-11T06:33:22;6.83;;;4.57;;
8823;SDS011;4448;50.904;4.694;2022-11-11T06:35:48;14.07;;;6.40;;
8823;SDS011;4448;50.904;4.694;2022-11-11T06:38:13;8.37;;;5.43;;
8823;SDS011;4448;50.904;4.694;2022-11-11T06:40:41;7.20;;;3.00;;
8823;SDS011;4448;50.904;4.694;2022-11-11T06:43:07;9.90;;;5.13;;
8823;SDS011;4448;50.904;4.694;2022-11-11T06:45:33;5.97;;;2.40;;
8823;SDS011;4448;50.904;4.694;2022-11-11T06:48:00;5.87;;;3.97;;
8823;SDS011;4448;50.904;4.694;2022-11-11T06:50:26;14.77;;;4.50;;
8823;SDS011;4448;50.904;4.694;2022-11-11T06:52:53;11.83;;;5.50;;
8823;SDS011;4448;50.904;4.694;2022-11-11T06:55:19;9.90;;;4.97;;
8823;SDS011;4448;50.904;4.694;2022-11-11T06:57:45;7.27;;;1.60;;
8823;SDS011;4448;50.904;4.694;2022-11-11T07:00:10;5.13;;;3.93;;
8823;SDS011;4448;50.904;4.694;2022-11-11T07:02:36;5.60;;;3.83;;
8823;SDS011;4448;50.904;4.694;2022-11-11T07:05:02;10.67;;;4.80;;
8823;SDS011;4448;50.904;4.694;2022-11-11T07:07:28;4.97;;;3.50;;
8823;SDS011;4448;50.904;4.694;2022-11-11T07:09:54;9.83;;;5.60;;
8823;SDS011;4448;50.904;4.694;2022-11-11T07:12:22;7.97;;;4.77;;
8823;SDS011;4448;50.904;4.694;2022-11-11T07:14:48;5.90;;;3.87;;
8823;SDS011;4448;50.904;4.694;2022-11-11T07:17:13;3.87;;;2.90;;
8823;SDS011;4448;50.904;4.694;2022-11-11T07:19:39;5.80;;;4.20;;
8823;SDS011;4448;50.904;4.694;2022-11-11T07:22:05;10.63;;;6.97;;
8823;SDS011;4448;50.904;4.694;2022-11-11T07:24:30;1.10;;;1.07;;
8823;SDS011;4448;50.904;4.694;2022-11-11T07:26:56;2.20;;;2.00;;
8823;SDS011;4448;50.904;4.694;2022-11-11T07:29:23;10.70;;;5.23;;
8823;SDS011;4448;50.904;4.694;2022-11-11T07:31:49;5.80;;;3.93;;
8823;SDS011;4448;50.904;4.694;2022-11-11T07:34:15;1.80;;;1.70;;
8823;SDS011;4448;50.904;4.694;2022-11-11T07:36:41;0.87;;;0.87;;
8823;SDS011;4448;50.904;4.694;2022-11-11T07:39:06;4.83;;;3.63;;
8823;SDS011;4448;50.904;4.694;2022-11-11T07:41:32;11.83;;;5.97;;
8823;SDS011;4448;50.904;4.694;2022-11-11T07:43:58;2.57;;;2.37;;
8823;SDS011;4448;50.904;4.694;2022-11-11T07:46:23;8.13;;;5.10;;
8823;SDS011;4448;50.904;4.694;2022-11-11T07:48:49;8.33;;;5.60;;
8823;SDS011;4448;50.904;4.694;2022-11-11T07:51:15;2.33;;;2.13;;
8823;SDS011;4448;50.904;4.694;2022-11-11T07:53:41;12.17;;;4.00;;
8823;SDS011;4448;50.904;4.694;2022-11-11T07:56:06;10.13;;;4.63;;
8823;SDS011;4448;50.904;4.694;2022-11-11T07:58:32;0.70;;;0.70;;
8823;SDS011;4448;50.904;4.694;2022-11-11T08:00:58;6.33;;;3.73;;
8823;SDS011;4448;50.904;4.694;2022-11-11T08:03:24;7.87;;;4.20;;
8823;SDS011;4448;50.904;4.694;2022-11-11T08:05:50;6.03;;;3.90;;
8823;SDS011;4448;50.904;4.694;2022-11-11T08:08:15;2.17;;;2.00;;
8823;SDS011;4448;50.904;4.694;2022-11-11T08:10:41;6.03;;;4.50;;
8823;SDS011;4448;50.904;4.694;2022-11-11T08:13:08;4.93;;;2.47;;
8823;SDS011;4448;50.904;4.694;2022-11-11T08:15:54;7.67;;;4.53;;
8823;SDS011;4448;50.904;4.694;2022-11-11T08:18:20;6.83;;;3.83;;
8823;SDS011;4448;50.904;4.694;2022-11-11T08:20:46;6.53;;;4.43;;
8823;SDS011;4448;50.904;4.694;2022-11-11T08:23:11;3.63;;;2.37;;
8823;SDS011;4448;50.904;4.694;2022-11-11T08:25:38;4.87;;;3.17;;
8823;SDS011;4448;50.904;4.694;2022-11-11T08:28:05;8.77;;;4.93;;
8823;SDS011;4448;50.904;4.694;2022-11-11T08:30:31;8.10;;;3.73;;
8823;SDS011;4448;50.904;4.694;2022-11-11T08:33:00;2.50;;;2.27;;
8823;SDS011;4448;50.904;4.694;2022-11-11T08:35:28;6.07;;;4.47;;
8823;SDS011;4448;50.904;4.694;2022-11-11T08:37:55;7.47;;;3.80;;
8823;SDS011;4448;50.904;4.694;2022-11-11T08:40:24;3.40;;;2.60;;
8823;SDS011;4448;50.904;4.694;2022-11-11T08:42:50;3.20;;;2.50;;
8823;SDS011;4448;50.904;4.694;2022-11-11T08:45:19;6.23;;;3.67;;
8823;SDS011;4448;50.904;4.694;2022-11-11T08:47:45;6.20;;;4.07;;
8823;SDS011;4448;50.904;4.694;2022-11-11T08:50:10;5.20;;;2.70;;
8823;SDS011;4448;50.904;4.694;2022-11-11T08:52:36;8.07;;;4.53;;
8823;SDS011;4448;50.904;4.694;2022-11-11T08:55:03;3.43;;;1.83;;
8823;SDS011;4448;50.904;4.694;2022-11-11T08:57:29;9.63;;;3.27;;
8823;SDS011;4448;50.904;4.694;2022-11-11T08:59:55;6.77;;;2.50;;
8823;SDS011;4448;50.904;4.694;2022-11-11T09:02:20;5.77;;;3.63;;
8823;SDS011;4448;50.904;4.694;2022-11-11T09:04:46;2.33;;;2.13;;
8823;SDS011;4448;50.904;4.694;2022-11-11T09:07:12;4.63;;;3.43;;
8823;SDS011;4448;50.904;4.694;2022-11-11T09:09:37;3.13;;;2.27;;
8823;SDS011;4448;50.904;4.694;2022-11-11T09:12:03;5.30;;;3.20;;
8823;SDS011;4448;50.904;4.694;2022-11-11T09:14:29;6.60;;;4.20;;
8823;SDS011;4448;50.904;4.694;2022-11-11T09:16:54;1.70;;;1.60;;
8823;SDS011;4448;50.904;4.694;2022-11-11T09:19:20;4.10;;;2.80;;
8823;SDS011;4448;50.904;4.694;2022-11-11T09:21:46;5.93;;;2.70;;
8823;SDS011;4448;50.904;4.694;2022-11-11T09:24:12;5.00;;;3.63;;
8823;SDS011;4448;50.904;4.694;2022-11-11T09:26:38;7.87;;;3.17;;
8823;SDS011;4448;50.904;4.694;2022-11-11T09:29:03;2.73;;;2.30;;
8823;SDS011;4448;50.904;4.694;2022-11-11T09:31:29;3.17;;;2.37;;
8823;SDS011;4448;50.904;4.694;2022-11-11T09:33:55;3.23;;;1.83;;
8823;SDS011;4448;50.904;4.694;2022-11-11T09:36:20;4.30;;;2.50;;
8823;SDS011;4448;50.904;4.694;2022-11-11T09:38:46;2.33;;;1.23;;
8823;SDS011;4448;50.904;4.694;2022-11-11T09:43:59;3.70;;;1.67;;
8823;SDS011;4448;50.904;4.694;2022-11-11T09:46:36;1.90;;;1.33;;
8823;SDS011;4448;50.904;4.694;2022-11-11T09:49:14;3.37;;;1.57;;
8823;SDS011;4448;50.904;4.694;2022-11-11T09:51:46;6.57;;;1.87;;
8823;SDS011;4448;50.904;4.694;2022-11-11T09:57:35;4.37;;;1.97;;
8823;SDS011;4448;50.904;4.694;2022-11-11T10:00:08;1.23;;;1.13;;
8823;SDS011;4448;50.904;4.694;2022-11-11T10:02:52;1.53;;;1.40;;
8823;SDS011;4448;50.904;4.694;2022-11-11T10:08:19;1.90;;;1.40;;
8823;SDS011;4448;50.904;4.694;2022-11-11T10:11:28;0.90;;;0.90;;
8823;SDS011;4448;50.904;4.694;2022-11-11T10:14:03;2.13;;;1.17;;
8823;SDS011;4448;50.904;4.694;2022-11-11T10:21:58;1.50;;;1.40;;
8823;SDS011;4448;50.904;4.694;2022-11-11T10:24:34;0.83;;;0.83;;
8823;SDS011;4448;50.904;4.694;2022-11-11T10:27:06;0.77;;;0.60;;
8823;SDS011;4448;50.904;4.694;2022-11-11T10:29:44;1.17;;;1.07;;
8823;SDS011;4448;50.904;4.694;2022-11-11T10:32:21;1.83;;;1.40;;
8823;SDS011;4448;50.904;4.694;2022-11-11T10:34:52;0.90;;;0.90;;
8823;SDS011;4448;50.904;4.694;2022-11-11T10:37:22;0.77;;;0.77;;
8823;SDS011;4448;50.904;4.694;2022-11-11T10:40:06;0.57;;;0.57;;
8823;SDS011;4448;50.904;4.694;2022-11-11T10:42:42;0.60;;;0.60;;
8823;SDS011;4448;50.904;4.694;2022-11-11T10:48:13;1.33;;;1.10;;
8823;SDS011;4448;50.904;4.694;2022-11-11T10:50:43;0.80;;;0.80;;
8823;SDS011;4448;50.904;4.694;2022-11-11T10:59:01;0.97;;;0.97;;
8823;SDS011;4448;50.904;4.694;2022-11-11T11:01:37;1.00;;;1.00;;
8823;SDS011;4448;50.904;4.694;2022-11-11T11:04:19;0.93;;;0.93;;
8823;SDS011;4448;50.904;4.694;2022-11-11T11:06:47;0.40;;;0.40;;
8823;SDS011;4448;50.904;4.694;2022-11-11T11:11:55;1.13;;;0.70;;
8823;SDS011;4448;50.904;4.694;2022-11-11T11:14:29;0.40;;;0.33;;
8823;SDS011;4448;50.904;4.694;2022-11-11T11:16:59;1.07;;;0.50;;
8823;SDS011;4448;50.904;4.694;2022-11-11T11:19:32;0.97;;;0.87;;
8823;SDS011;4448;50.904;4.694;2022-11-11T11:22:00;0.40;;;0.40;;
8823;SDS011;4448;50.904;4.694;2022-11-11T11:24:28;0.33;;;0.33;;
8823;SDS011;4448;50.904;4.694;2022-11-11T11:27:02;0.80;;;0.80;;
8823;SDS011;4448;50.904;4.694;2022-11-11T11:29:35;0.40;;;0.40;;
8823;SDS011;4448;50.904;4.694;2022-11-11T11:37:13;1.33;;;1.03;;
8823;SDS011;4448;50.904;4.694;2022-11-11T11:39:39;0.80;;;0.77;;
8823;SDS011;4448;50.904;4.694;2022-11-11T11:42:05;1.70;;;1.60;;
8823;SDS011;4448;50.904;4.694;2022-11-11T11:44:36;1.40;;;0.63;;
8823;SDS011;4448;50.904;4.694;2022-11-11T11:47:12;0.23;;;0.20;;
8823;SDS011;4448;50.904;4.694;2022-11-11T11:49:58;0.73;;;0.73;;
8823;SDS011;4448;50.904;4.694;2022-11-11T11:55:50;4.00;;;0.70;;
8823;SDS011;4448;50.904;4.694;2022-11-11T11:58:29;0.50;;;0.50;;
8823;SDS011;4448;50.904;4.694;2022-11-11T12:01:28;0.40;;;0.40;;
8823;SDS011;4448;50.904;4.694;2022-11-11T12:34:22;1.60;;;0.73;;
8823;SDS011;4448;50.904;4.694;2022-11-11T12:37:07;2.00;;;0.50;;
8823;SDS011;4448;50.904;4.694;2022-11-11T12:40:43;1.40;;;0.77;;
8823;SDS011;4448;50.904;4.694;2022-11-11T12:42:44;0.80;;;0.77;;
8823;SDS011;4448;50.904;4.694;2022-11-11T12:45:22;0.57;;;0.57;;
8823;SDS011;4448;50.904;4.694;2022-11-11T12:56:35;0.37;;;0.37;;
8823;SDS011;4448;50.904;4.694;2022-11-11T13:10:32;0.60;;;0.60;;
8823;SDS011;4448;50.904;4.694;2022-11-11T13:12:42;0.50;;;0.50;;
8823;SDS011;4448;50.904;4.694;2022-11-11T13:15:25;0.27;;;0.27;;
8823;SDS011;4448;50.904;4.694;2022-11-11T13:17:52;1.90;;;0.60;;
8823;SDS011;4448;50.904;4.694;2022-11-11T13:23:14;0.47;;;0.43;;
8823;SDS011;4448;50.904;4.694;2022-11-11T13:25:51;0.30;;;0.30;;
8823;SDS011;4448;50.904;4.694;2022-11-11T13:31:50;0.30;;;0.30;;
8823;SDS011;4448;50.904;4.694;2022-11-11T13:34:17;0.53;;;0.53;;
8823;SDS011;4448;50.904;4.694;2022-11-11T13:36:55;1.70;;;1.17;;
8823;SDS011;4448;50.904;4.694;2022-11-11T13:39:38;0.20;;;0.20;;
8823;SDS011;4448;50.904;4.694;2022-11-11T13:42:37;0.50;;;0.50;;
8823;SDS011;4448;50.904;4.694;2022-11-11T13:45:34;0.73;;;0.67;;
8823;SDS011;4448;50.904;4.694;2022-11-11T13:48:27;3.27;;;1.20;;
8823;SDS011;4448;50.904;4.694;2022-11-11T13:51:09;4.70;;;0.80;;
8823;SDS011;4448;50.904;4.694;2022-11-11T13:53:51;0.83;;;0.83;;
8823;SDS011;4448;50.904;4.694;2022-11-11T13:56:27;0.30;;;0.30;;
8823;SDS011;4448;50.904;4.694;2022-11-11T13:59:13;2.23;;;0.87;;
8823;SDS011;4448;50.904;4.694;2022-11-11T14:05:28;0.57;;;0.57;;
8823;SDS011;4448;50.904;4.694;2022-11-11T14:12:57;2.57;;;0.83;;
8823;SDS011;4448;50.904;4.694;2022-11-11T14:15:45;2.30;;;1.07;;
8823;SDS011;4448;50.904;4.694;2022-11-11T14:20:43;0.10;;;0.10;;
8823;SDS011;4448;50.904;4.694;2022-11-11T14:23:34;0.30;;;0.30;;
8823;SDS011;4448;50.904;4.694;2022-11-11T14:29:19;1.13;;;1.00;;
8823;SDS011;4448;50.904;4.694;2022-11-11T14:34:18;3.80;;;1.40;;
8823;SDS011;4448;50.904;4.694;2022-11-11T14:39:52;0.73;;;0.60;;
8823;SDS011;4448;50.904;4.694;2022-11-11T14:47:58;6.53;;;2.20;;
8823;SDS011;4448;50.904;4.694;2022-11-11T14:53:19;1.50;;;0.87;;
8823;SDS011;4448;50.904;4.694;2022-11-11T14:55:54;0.97;;;0.97;;
8823;SDS011;4448;50.904;4.694;2022-11-11T14:58:21;0.70;;;0.70;;
8823;SDS011;4448;50.904;4.694;2022-11-11T15:00:58;0.33;;;0.33;;
8823;SDS011;4448;50.904;4.694;2022-11-11T15:06:03;0.67;;;0.67;;
8823;SDS011;4448;50.904;4.694;2022-11-11T15:11:28;0.30;;;0.30;;
8823;SDS011;4448;50.904;4.694;2022-11-11T15:14:10;0.40;;;0.40;;
8823;SDS011;4448;50.904;4.694;2022-11-11T15:19:48;0.97;;;0.73;;
8823;SDS011;4448;50.904;4.694;2022-11-11T15:28:35;0.30;;;0.30;;
8823;SDS011;4448;50.904;4.694;2022-11-11T15:31:20;0.50;;;0.50;;
8823;SDS011;4448;50.904;4.694;2022-11-11T15:34:22;0.67;;;0.67;;
8823;SDS011;4448;50.904;4.694;2022-11-11T15:37:04;0.60;;;0.60;;
8823;SDS011;4448;50.904;4.694;2022-11-11T15:39:41;1.03;;;0.93;;
8823;SDS011;4448;50.904;4.694;2022-11-11T15:42:17;0.37;;;0.27;;
8823;SDS011;4448;50.904;4.694;2022-11-11T15:44:51;0.83;;;0.83;;
8823;SDS011;4448;50.904;4.694;2022-11-11T15:47:20;0.83;;;0.83;;
8823;SDS011;4448;50.904;4.694;2022-11-11T15:49:49;1.17;;;0.87;;
8823;SDS011;4448;50.904;4.694;2022-11-11T15:54:50;1.37;;;1.17;;
8823;SDS011;4448;50.904;4.694;2022-11-11T15:57:24;1.10;;;0.93;;
8823;SDS011;4448;50.904;4.694;2022-11-11T15:59:52;0.30;;;0.30;;
8823;SDS011;4448;50.904;4.694;2022-11-11T16:02:20;1.60;;;0.73;;
8823;SDS011;4448;50.904;4.694;2022-11-11T16:04:48;1.87;;;1.67;;
8823;SDS011;4448;50.904;4.694;2022-11-11T16:07:23;1.30;;;1.13;;
8823;SDS011;4448;50.904;4.694;2022-11-11T16:09:51;0.73;;;0.73;;
8823;SDS011;4448;50.904;4.694;2022-11-11T16:12:23;1.03;;;0.77;;
8823;SDS011;4448;50.904;4.694;2022-11-11T16:14:52;0.20;;;0.20;;
8823;SDS011;4448;50.904;4.694;2022-11-11T16:17:21;0.30;;;0.30;;
8823;SDS011;4448;50.904;4.694;2022-11-11T16:19:51;0.20;;;0.20;;
8823;SDS011;4448;50.904;4.694;2022-11-11T16:22:20;1.30;;;0.90;;
8823;SDS011;4448;50.904;4.694;2022-11-11T16:24:51;1.63;;;1.23;;
8823;SDS011;4448;50.904;4.694;2022-11-11T16:27:20;3.23;;;1.13;;
8823;SDS011;4448;50.904;4.694;2022-11-11T16:29:50;1.00;;;0.93;;
8823;SDS011;4448;50.904;4.694;2022-11-11T16:34:51;4.10;;;0.97;;
8823;SDS011;4448;50.904;4.694;2022-11-11T16:37:18;1.47;;;1.40;;
8823;SDS011;4448;50.904;4.694;2022-11-11T16:39:45;1.47;;;1.37;;
8823;SDS011;4448;50.904;4.694;2022-11-11T16:42:19;1.10;;;0.80;;
8823;SDS011;4448;50.904;4.694;2022-11-11T16:44:59;1.27;;;1.20;;
8823;SDS011;4448;50.904;4.694;2022-11-11T16:52:52;3.37;;;2.00;;
8823;SDS011;4448;50.904;4.694;2022-11-11T16:55:27;2.37;;;2.23;;
8823;SDS011;4448;50.904;4.694;2022-11-11T17:00:43;2.00;;;1.90;;
8823;SDS011;4448;50.904;4.694;2022-11-11T17:05:51;1.50;;;1.47;;
8823;SDS011;4448;50.904;4.694;2022-11-11T17:08:39;3.40;;;2.17;;
8823;SDS011;4448;50.904;4.694;2022-11-11T17:11:10;1.93;;;1.83;;
8823;SDS011;4448;50.904;4.694;2022-11-11T17:13:56;5.70;;;3.50;;
8823;SDS011;4448;50.904;4.694;2022-11-11T17:16:21;2.53;;;2.03;;
8823;SDS011;4448;50.904;4.694;2022-11-11T17:18:47;4.60;;;2.57;;
8823;SDS011;4448;50.904;4.694;2022-11-11T17:21:13;5.13;;;2.53;;
8823;SDS011;4448;50.904;4.694;2022-11-11T17:23:39;2.57;;;2.20;;
8823;SDS011;4448;50.904;4.694;2022-11-11T17:26:04;1.40;;;1.30;;
8823;SDS011;4448;50.904;4.694;2022-11-11T17:28:33;6.70;;;1.73;;
8823;SDS011;4448;50.904;4.694;2022-11-11T17:31:04;1.63;;;1.53;;
8823;SDS011;4448;50.904;4.694;2022-11-11T17:33:31;2.87;;;1.30;;
8823;SDS011;4448;50.904;4.694;2022-11-11T17:35:56;0.30;;;0.30;;
8823;SDS011;4448;50.904;4.694;2022-11-11T17:38:22;0.30;;;0.30;;
8823;SDS011;4448;50.904;4.694;2022-11-11T17:40:49;0.30;;;0.30;;
8823;SDS011;4448;50.904;4.694;2022-11-11T17:43:15;0.50;;;0.50;;
8823;SDS011;4448;50.904;4.694;2022-11-11T17:45:41;1.07;;;1.03;;
8823;SDS011;4448;50.904;4.694;2022-11-11T17:48:07;0.20;;;0.20;;
8823;SDS011;4448;50.904;4.694;2022-11-11T17:50:34;0.30;;;0.30;;
8823;SDS011;4448;50.904;4.694;2022-11-11T17:53:01;0.50;;;0.50;;
8823;SDS011;4448;50.904;4.694;2022-11-11T17:55:27;1.43;;;1.33;;
8823;SDS011;4448;50.904;4.694;2022-11-11T17:57:56;0.70;;;0.70;;
8823;SDS011;4448;50.904;4.694;2022-11-11T18:00:22;0.30;;;0.30;;
8823;SDS011;4448;50.904;4.694;2022-11-11T18:02:48;0.20;;;0.20;;
8823;SDS011;4448;50.904;4.694;2022-11-11T18:05:13;1.53;;;1.43;;
8823;SDS011;4448;50.904;4.694;2022-11-11T18:07:39;0.30;;;0.30;;
8823;SDS011;4448;50.904;4.694;2022-11-11T18:10:05;0.37;;;0.37;;
8823;SDS011;4448;50.904;4.694;2022-11-11T18:12:33;0.40;;;0.40;;
8823;SDS011;4448;50.904;4.694;2022-11-11T18:14:59;0.63;;;0.63;;
8823;SDS011;4448;50.904;4.694;2022-11-11T18:17:25;3.97;;;2.50;;